sensor_id;sensor_type;location;lat;lon;timestamp;P1;P2;P0
26185;PMS7003;20067;48.764;9.176;2024-02-15T00:02:14;2.00;2.00;0.00
26185;PMS7003;20067;48.764;9.176;2024-02-15T00:04:40;4.00;4.00;0.00
26185;PMS7003;20067;48.764;9.176;2024-02-15T00:07:06;4.00;4.00;0.00
26185;PMS7003;20067;48.764;9.176;2024-02-15T00:09:31;5.00;5.00;1.00
26185;PMS7003;20067;48.764;9.176;2024-02-15T00:11:57;3.50;3.50;0.25
26185;PMS7003;20067;48.764;9.176;2024-02-15T00:14:25;5.50;4.75;1.00
26185;PMS7003;20067;48.764;9.176;2024-02-15T00:16:53;5.00;5.00;1.00
26185;PMS7003;20067;48.764;9.176;2024-02-15T00:19:18;4.00;4.00;1.00
26185;PMS7003;20067;48.764;9.176;2024-02-15T00:21:44;4.75;4.75;1.00
26185;PMS7003;20067;48.764;9.176;2024-02-15T00:24:10;4.75;4.75;0.50
26185;PMS7003;20067;48.764;9.176;2024-02-15T00:26:35;4.00;4.00;0.00
26185;PMS7003;20067;48.764;9.176;2024-02-15T00:29:01;4.00;4.00;1.00
26185;PMS7003;20067;48.764;9.176;2024-02-15T00:31:26;5.00;5.00;1.00
26185;PMS7003;20067;48.764;9.176;2024-02-15T00:33:52;7.00;4.25;1.00
26185;PMS7003;20067;48.764;9.176;2024-02-15T00:36:19;4.25;4.25;1.00
26185;PMS7003;20067;48.764;9.176;2024-02-15T00:38:44;5.00;4.00;0.50
26185;PMS7003;20067;48.764;9.176;2024-02-15T00:41:10;4.00;4.00;1.00
26185;PMS7003;20067;48.764;9.176;2024-02-15T00:43:35;4.00;4.00;0.25
26185;PMS7003;20067;48.764;9.176;2024-02-15T00:46:01;8.00;5.00;1.00
26185;PMS7003;20067;48.764;9.176;2024-02-15T00:48:27;4.00;4.00;0.75
26185;PMS7003;20067;48.764;9.176;2024-02-15T00:50:54;4.50;4.50;1.00
26185;PMS7003;20067;48.764;9.176;2024-02-15T00:53:24;4.00;4.00;0.00
26185;PMS7003;20067;48.764;9.176;2024-02-15T00:55:50;5.00;4.00;1.00
26185;PMS7003;20067;48.764;9.176;2024-02-15T00:58:16;2.00;2.00;0.00
26185;PMS7003;20067;48.764;9.176;2024-02-15T01:00:41;4.00;4.00;0.00
26185;PMS7003;20067;48.764;9.176;2024-02-15T01:03:07;5.00;5.00;1.00
26185;PMS7003;20067;48.764;9.176;2024-02-15T01:05:33;7.00;4.00;1.00
26185;PMS7003;20067;48.764;9.176;2024-02-15T01:07:59;5.00;5.00;1.00
26185;PMS7003;20067;48.764;9.176;2024-02-15T01:10:25;5.00;5.00;1.00
26185;PMS7003;20067;48.764;9.176;2024-02-15T01:12:51;4.25;4.25;0.75
26185;PMS7003;20067;48.764;9.176;2024-02-15T01:15:17;4.75;4.25;1.00
26185;PMS7003;20067;48.764;9.176;2024-02-15T01:17:45;7.00;5.00;1.00
26185;PMS7003;20067;48.764;9.176;2024-02-15T01:20:10;4.50;4.50;1.00
26185;PMS7003;20067;48.764;9.176;2024-02-15T01:22:36;5.00;5.00;1.00
26185;PMS7003;20067;48.764;9.176;2024-02-15T01:25:02;4.25;4.25;1.00
26185;PMS7003;20067;48.764;9.176;2024-02-15T01:27:29;5.00;5.00;1.00
26185;PMS7003;20067;48.764;9.176;2024-02-15T01:29:55;4.00;4.00;0.00
26185;PMS7003;20067;48.764;9.176;2024-02-15T01:32:21;4.75;4.75;1.00
26185;PMS7003;20067;48.764;9.176;2024-02-15T01:34:46;4.25;4.00;1.00
26185;PMS7003;20067;48.764;9.176;2024-02-15T01:37:12;7.25;5.00;1.00
26185;PMS7003;20067;48.764;9.176;2024-02-15T01:39:38;4.00;4.00;1.00
26185;PMS7003;20067;48.764;9.176;2024-02-15T01:42:03;5.00;5.00;1.00
26185;PMS7003;20067;48.764;9.176;2024-02-15T01:44:30;4.00;4.00;1.00
26185;PMS7003;20067;48.764;9.176;2024-02-15T01:46:55;4.25;4.25;1.00
26185;PMS7003;20067;48.764;9.176;2024-02-15T01:49:21;5.00;5.00;1.00
26185;PMS7003;20067;48.764;9.176;2024-02-15T01:51:49;5.50;5.00;1.00
26185;PMS7003;20067;48.764;9.176;2024-02-15T01:54:17;4.00;4.00;1.00
26185;PMS7003;20067;48.764;9.176;2024-02-15T01:56:44;4.00;4.00;1.00
26185;PMS7003;20067;48.764;9.176;2024-02-15T01:59:10;7.75;4.75;1.00
26185;PMS7003;20067;48.764;9.176;2024-02-15T02:01:39;4.00;4.00;1.00
26185;PMS7003;20067;48.764;9.176;2024-02-15T02:04:06;3.00;3.00;0.00
26185;PMS7003;20067;48.764;9.176;2024-02-15T02:06:34;4.75;4.50;1.00
26185;PMS7003;20067;48.764;9.176;2024-02-15T02:08:59;5.00;5.00;1.00
26185;PMS7003;20067;48.764;9.176;2024-02-15T02:11:27;4.25;4.25;1.25
26185;PMS7003;20067;48.764;9.176;2024-02-15T02:13:54;7.50;4.50;0.50
26185;PMS7003;20067;48.764;9.176;2024-02-15T02:16:29;4.25;4.25;0.00
26185;PMS7003;20067;48.764;9.176;2024-02-15T02:19:00;5.00;4.75;1.00
26185;PMS7003;20067;48.764;9.176;2024-02-15T02:21:26;6.50;4.75;1.00
26185;PMS7003;20067;48.764;9.176;2024-02-15T02:23:54;4.00;4.00;0.00
26185;PMS7003;20067;48.764;9.176;2024-02-15T02:26:21;4.75;4.75;1.00
26185;PMS7003;20067;48.764;9.176;2024-02-15T02:28:48;5.00;5.00;1.00
26185;PMS7003;20067;48.764;9.176;2024-02-15T02:31:14;4.25;4.25;1.00
26185;PMS7003;20067;48.764;9.176;2024-02-15T02:33:47;5.00;4.25;1.00
26185;PMS7003;20067;48.764;9.176;2024-02-15T02:36:16;5.00;5.00;1.00
26185;PMS7003;20067;48.764;9.176;2024-02-15T02:38:42;4.00;4.00;1.00
26185;PMS7003;20067;48.764;9.176;2024-02-15T02:41:10;4.25;4.25;0.00
26185;PMS7003;20067;48.764;9.176;2024-02-15T02:43:41;4.75;4.75;1.25
26185;PMS7003;20067;48.764;9.176;2024-02-15T02:46:09;4.00;4.00;1.00
26185;PMS7003;20067;48.764;9.176;2024-02-15T02:48:36;5.00;4.00;1.00
26185;PMS7003;20067;48.764;9.176;2024-02-15T02:51:02;4.50;4.50;1.00
26185;PMS7003;20067;48.764;9.176;2024-02-15T02:53:28;4.75;4.00;1.00
26185;PMS7003;20067;48.764;9.176;2024-02-15T02:55:55;3.50;3.50;0.25
26185;PMS7003;20067;48.764;9.176;2024-02-15T02:58:21;5.00;5.00;1.00
26185;PMS7003;20067;48.764;9.176;2024-02-15T03:00:48;4.00;4.00;1.00
26185;PMS7003;20067;48.764;9.176;2024-02-15T03:03:17;4.00;4.00;1.00
26185;PMS7003;20067;48.764;9.176;2024-02-15T03:05:47;4.00;4.00;1.00
26185;PMS7003;20067;48.764;9.176;2024-02-15T03:08:13;7.00;6.50;1.50
26185;PMS7003;20067;48.764;9.176;2024-02-15T03:10:39;3.50;3.50;0.00
26185;PMS7003;20067;48.764;9.176;2024-02-15T03:13:05;4.50;4.00;0.50
26185;PMS7003;20067;48.764;9.176;2024-02-15T03:15:32;4.00;4.00;0.00
26185;PMS7003;20067;48.764;9.176;2024-02-15T03:17:59;4.00;4.00;1.00
26185;PMS7003;20067;48.764;9.176;2024-02-15T03:20:24;5.00;5.00;1.00
26185;PMS7003;20067;48.764;9.176;2024-02-15T03:25:19;4.75;4.00;0.00
26185;PMS7003;20067;48.764;9.176;2024-02-15T03:27:48;4.50;4.00;1.00
26185;PMS7003;20067;48.764;9.176;2024-02-15T03:30:16;6.00;6.00;1.00
26185;PMS7003;20067;48.764;9.176;2024-02-15T03:32:42;7.25;6.75;1.00
26185;PMS7003;20067;48.764;9.176;2024-02-15T03:35:08;6.00;4.00;0.00
26185;PMS7003;20067;48.764;9.176;2024-02-15T03:37:33;4.75;4.75;1.00
26185;PMS7003;20067;48.764;9.176;2024-02-15T03:40:02;4.00;4.00;1.00
26185;PMS7003;20067;48.764;9.176;2024-02-15T03:42:29;4.50;4.00;0.50
26185;PMS7003;20067;48.764;9.176;2024-02-15T03:44:55;5.00;5.00;1.00
26185;PMS7003;20067;48.764;9.176;2024-02-15T03:47:21;5.00;4.25;0.75
26185;PMS7003;20067;48.764;9.176;2024-02-15T03:49:46;5.00;4.25;1.00
26185;PMS7003;20067;48.764;9.176;2024-02-15T03:52:12;5.00;4.00;0.75
26185;PMS7003;20067;48.764;9.176;2024-02-15T03:54:38;4.00;4.00;1.00
26185;PMS7003;20067;48.764;9.176;2024-02-15T03:57:04;4.00;4.00;0.25
26185;PMS7003;20067;48.764;9.176;2024-02-15T03:59:31;4.50;4.50;1.00
26185;PMS7003;20067;48.764;9.176;2024-02-15T04:01:57;5.00;5.00;1.00
26185;PMS7003;20067;48.764;9.176;2024-02-15T04:04:23;4.00;4.00;1.00
26185;PMS7003;20067;48.764;9.176;2024-02-15T04:06:49;5.25;5.25;1.50
26185;PMS7003;20067;48.764;9.176;2024-02-15T04:09:16;4.00;4.00;1.00
26185;PMS7003;20067;48.764;9.176;2024-02-15T04:11:48;2.50;2.50;0.25
26185;PMS7003;20067;48.764;9.176;2024-02-15T04:14:17;4.00;4.00;1.00
26185;PMS7003;20067;48.764;9.176;2024-02-15T04:16:46;4.75;4.75;1.00
26185;PMS7003;20067;48.764;9.176;2024-02-15T04:19:12;4.75;4.75;1.00
26185;PMS7003;20067;48.764;9.176;2024-02-15T04:21:38;4.00;4.00;1.00
26185;PMS7003;20067;48.764;9.176;2024-02-15T04:24:05;4.25;4.00;1.00
26185;PMS7003;20067;48.764;9.176;2024-02-15T04:26:31;7.00;6.00;1.00
26185;PMS7003;20067;48.764;9.176;2024-02-15T04:28:58;5.00;5.00;1.00
26185;PMS7003;20067;48.764;9.176;2024-02-15T04:31:24;4.00;4.00;0.75
26185;PMS7003;20067;48.764;9.176;2024-02-15T04:33:53;4.25;4.25;1.00
26185;PMS7003;20067;48.764;9.176;2024-02-15T04:36:19;5.00;5.00;0.50
26185;PMS7003;20067;48.764;9.176;2024-02-15T04:38:49;5.00;5.00;1.00
26185;PMS7003;20067;48.764;9.176;2024-02-15T04:41:15;5.50;5.00;1.00
26185;PMS7003;20067;48.764;9.176;2024-02-15T04:43:50;5.00;5.00;1.00
26185;PMS7003;20067;48.764;9.176;2024-02-15T04:46:17;4.25;4.00;1.00
26185;PMS7003;20067;48.764;9.176;2024-02-15T04:48:46;4.00;4.00;1.00
26185;PMS7003;20067;48.764;9.176;2024-02-15T04:51:11;6.25;4.00;1.00
26185;PMS7003;20067;48.764;9.176;2024-02-15T04:53:37;8.00;5.00;1.00
26185;PMS7003;20067;48.764;9.176;2024-02-15T04:56:05;5.00;4.25;1.00
26185;PMS7003;20067;48.764;9.176;2024-02-15T04:58:36;6.50;6.50;1.00
26185;PMS7003;20067;48.764;9.176;2024-02-15T05:01:03;5.00;5.00;1.00
26185;PMS7003;20067;48.764;9.176;2024-02-15T05:03:30;4.25;4.25;0.50
26185;PMS7003;20067;48.764;9.176;2024-02-15T05:06:00;4.00;4.00;1.00
26185;PMS7003;20067;48.764;9.176;2024-02-15T05:08:26;4.00;4.00;0.00
26185;PMS7003;20067;48.764;9.176;2024-02-15T05:10:51;4.00;4.00;0.75
26185;PMS7003;20067;48.764;9.176;2024-02-15T05:13:21;4.75;4.00;0.75
26185;PMS7003;20067;48.764;9.176;2024-02-15T05:15:52;4.50;4.00;1.00
26185;PMS7003;20067;48.764;9.176;2024-02-15T05:18:17;4.00;4.00;1.00
26185;PMS7003;20067;48.764;9.176;2024-02-15T05:20:43;7.75;5.00;1.50
26185;PMS7003;20067;48.764;9.176;2024-02-15T05:23:09;7.25;5.00;1.00
26185;PMS7003;20067;48.764;9.176;2024-02-15T05:25:34;4.00;4.00;1.00
26185;PMS7003;20067;48.764;9.176;2024-02-15T05:28:00;5.75;5.75;1.00
26185;PMS7003;20067;48.764;9.176;2024-02-15T05:30:26;6.50;6.50;1.00
26185;PMS7003;20067;48.764;9.176;2024-02-15T05:32:52;6.00;6.00;1.00
26185;PMS7003;20067;48.764;9.176;2024-02-15T05:35:18;6.00;5.00;1.00
26185;PMS7003;20067;48.764;9.176;2024-02-15T05:37:44;6.25;5.75;1.00
26185;PMS7003;20067;48.764;9.176;2024-02-15T05:40:11;5.00;5.00;1.50
26185;PMS7003;20067;48.764;9.176;2024-02-15T05:42:43;4.00;4.00;1.00
26185;PMS7003;20067;48.764;9.176;2024-02-15T05:47:54;4.00;4.00;0.00
26185;PMS7003;20067;48.764;9.176;2024-02-15T05:50:19;5.00;5.00;1.00
26185;PMS7003;20067;48.764;9.176;2024-02-15T05:52:46;4.50;4.50;1.00
26185;PMS7003;20067;48.764;9.176;2024-02-15T05:55:12;4.50;4.50;1.00
26185;PMS7003;20067;48.764;9.176;2024-02-15T05:57:42;7.00;5.00;1.00
26185;PMS7003;20067;48.764;9.176;2024-02-15T06:00:08;4.25;4.25;1.00
26185;PMS7003;20067;48.764;9.176;2024-02-15T06:02:34;5.00;5.00;1.00
26185;PMS7003;20067;48.764;9.176;2024-02-15T06:05:00;7.25;6.00;1.75
26185;PMS7003;20067;48.764;9.176;2024-02-15T06:07:29;5.00;5.00;1.25
26185;PMS7003;20067;48.764;9.176;2024-02-15T06:09:57;5.00;5.00;2.00
26185;PMS7003;20067;48.764;9.176;2024-02-15T06:12:23;6.00;6.00;2.00
26185;PMS7003;20067;48.764;9.176;2024-02-15T06:14:48;5.00;5.00;1.00
26185;PMS7003;20067;48.764;9.176;2024-02-15T06:17:14;5.50;5.00;1.00
26185;PMS7003;20067;48.764;9.176;2024-02-15T06:19:40;5.50;4.75;1.00
26185;PMS7003;20067;48.764;9.176;2024-02-15T06:22:05;7.50;5.00;1.00
26185;PMS7003;20067;48.764;9.176;2024-02-15T06:24:31;7.00;7.00;2.00
26185;PMS7003;20067;48.764;9.176;2024-02-15T06:26:57;4.25;4.25;1.00
26185;PMS7003;20067;48.764;9.176;2024-02-15T06:29:25;7.00;7.00;1.00
26185;PMS7003;20067;48.764;9.176;2024-02-15T06:32:09;5.00;5.00;1.00
26185;PMS7003;20067;48.764;9.176;2024-02-15T06:34:54;6.00;5.00;1.50
26185;PMS7003;20067;48.764;9.176;2024-02-15T06:37:38;9.00;8.75;1.00
26185;PMS7003;20067;48.764;9.176;2024-02-15T06:40:22;7.00;6.00;3.00
26185;PMS7003;20067;48.764;9.176;2024-02-15T06:42:48;9.25;9.00;3.50
26185;PMS7003;20067;48.764;9.176;2024-02-15T06:45:14;7.00;7.00;3.00
26185;PMS7003;20067;48.764;9.176;2024-02-15T06:47:41;7.50;7.50;3.00
26185;PMS7003;20067;48.764;9.176;2024-02-15T06:50:10;5.50;5.50;1.50
26185;PMS7003;20067;48.764;9.176;2024-02-15T06:52:39;7.00;6.50;3.00
26185;PMS7003;20067;48.764;9.176;2024-02-15T06:55:09;8.50;7.75;3.00
26185;PMS7003;20067;48.764;9.176;2024-02-15T06:57:39;7.00;7.00;3.00
26185;PMS7003;20067;48.764;9.176;2024-02-15T07:00:06;9.25;6.00;1.00
26185;PMS7003;20067;48.764;9.176;2024-02-15T07:02:33;7.00;7.00;1.25
26185;PMS7003;20067;48.764;9.176;2024-02-15T07:04:58;6.50;6.00;1.75
26185;PMS7003;20067;48.764;9.176;2024-02-15T07:07:24;6.75;6.00;3.00
26185;PMS7003;20067;48.764;9.176;2024-02-15T07:09:50;7.50;6.50;3.00
26185;PMS7003;20067;48.764;9.176;2024-02-15T07:12:16;10.00;8.50;3.75
26185;PMS7003;20067;48.764;9.176;2024-02-15T07:14:43;6.25;6.25;1.00
26185;PMS7003;20067;48.764;9.176;2024-02-15T07:17:12;7.00;7.00;3.00
26185;PMS7003;20067;48.764;9.176;2024-02-15T07:19:41;8.25;8.25;3.00
26185;PMS7003;20067;48.764;9.176;2024-02-15T07:22:10;7.00;6.75;3.00
26185;PMS7003;20067;48.764;9.176;2024-02-15T07:24:36;6.75;6.25;3.00
26185;PMS7003;20067;48.764;9.176;2024-02-15T07:27:03;9.00;7.50;3.00
26185;PMS7003;20067;48.764;9.176;2024-02-15T07:29:30;7.00;7.00;2.25
26185;PMS7003;20067;48.764;9.176;2024-02-15T07:31:57;5.75;5.50;2.00
26185;PMS7003;20067;48.764;9.176;2024-02-15T07:34:25;8.25;7.50;3.00
26185;PMS7003;20067;48.764;9.176;2024-02-15T07:36:51;8.75;6.75;2.25
26185;PMS7003;20067;48.764;9.176;2024-02-15T07:39:17;8.25;6.00;1.50
26185;PMS7003;20067;48.764;9.176;2024-02-15T07:41:50;6.50;6.50;3.00
26185;PMS7003;20067;48.764;9.176;2024-02-15T07:44:16;8.50;7.00;3.75
26185;PMS7003;20067;48.764;9.176;2024-02-15T07:46:42;6.00;6.00;3.00
26185;PMS7003;20067;48.764;9.176;2024-02-15T07:49:08;7.50;5.75;2.50
26185;PMS7003;20067;48.764;9.176;2024-02-15T07:51:34;7.00;6.00;2.00
26185;PMS7003;20067;48.764;9.176;2024-02-15T07:54:01;9.00;7.00;3.00
26185;PMS7003;20067;48.764;9.176;2024-02-15T07:56:26;5.25;5.25;1.00
26185;PMS7003;20067;48.764;9.176;2024-02-15T07:58:52;6.75;6.75;3.00
26185;PMS7003;20067;48.764;9.176;2024-02-15T08:01:18;8.75;8.75;4.00
26185;PMS7003;20067;48.764;9.176;2024-02-15T08:03:47;7.50;7.50;4.00
26185;PMS7003;20067;48.764;9.176;2024-02-15T08:06:14;8.00;8.00;3.75
26185;PMS7003;20067;48.764;9.176;2024-02-15T08:08:41;9.00;9.00;4.00
26185;PMS7003;20067;48.764;9.176;2024-02-15T08:11:10;8.00;7.00;3.50
26185;PMS7003;20067;48.764;9.176;2024-02-15T08:13:47;5.50;4.00;1.00
26185;PMS7003;20067;48.764;9.176;2024-02-15T08:16:23;8.50;8.50;5.00
26185;PMS7003;20067;48.764;9.176;2024-02-15T08:18:49;6.00;6.00;3.00
26185;PMS7003;20067;48.764;9.176;2024-02-15T08:23:52;6.00;6.00;3.00
26185;PMS7003;20067;48.764;9.176;2024-02-15T08:26:17;6.75;6.25;3.00
26185;PMS7003;20067;48.764;9.176;2024-02-15T08:28:43;9.00;7.50;3.00
26185;PMS7003;20067;48.764;9.176;2024-02-15T08:31:09;6.75;6.75;1.00
26185;PMS7003;20067;48.764;9.176;2024-02-15T08:33:36;9.00;9.00;4.00
26185;PMS7003;20067;48.764;9.176;2024-02-15T08:36:03;9.00;7.50;3.00
26185;PMS7003;20067;48.764;9.176;2024-02-15T08:38:30;6.50;6.50;3.00
26185;PMS7003;20067;48.764;9.176;2024-02-15T08:40:56;6.25;6.25;3.00
26185;PMS7003;20067;48.764;9.176;2024-02-15T08:43:21;5.00;5.00;1.00
26185;PMS7003;20067;48.764;9.176;2024-02-15T08:45:48;6.50;4.50;1.00
26185;PMS7003;20067;48.764;9.176;2024-02-15T08:48:15;7.25;7.00;2.00
26185;PMS7003;20067;48.764;9.176;2024-02-15T08:50:40;5.00;5.00;1.00
26185;PMS7003;20067;48.764;9.176;2024-02-15T08:53:06;5.00;5.00;1.00
26185;PMS7003;20067;48.764;9.176;2024-02-15T08:55:32;5.50;5.50;2.00
26185;PMS7003;20067;48.764;9.176;2024-02-15T08:58:00;9.00;7.50;3.50
26185;PMS7003;20067;48.764;9.176;2024-02-15T09:00:27;8.00;5.50;2.00
26185;PMS7003;20067;48.764;9.176;2024-02-15T09:02:53;8.00;7.00;2.00
26185;PMS7003;20067;48.764;9.176;2024-02-15T09:05:19;7.50;7.00;4.00
26185;PMS7003;20067;48.764;9.176;2024-02-15T09:07:47;7.00;7.00;2.00
26185;PMS7003;20067;48.764;9.176;2024-02-15T09:10:13;7.00;7.00;2.00
26185;PMS7003;20067;48.764;9.176;2024-02-15T09:12:40;7.50;7.50;2.00
26185;PMS7003;20067;48.764;9.176;2024-02-15T09:15:07;8.00;7.00;2.00
26185;PMS7003;20067;48.764;9.176;2024-02-15T09:17:34;5.00;5.00;2.00
26185;PMS7003;20067;48.764;9.176;2024-02-15T09:20:07;7.00;7.00;1.75
26185;PMS7003;20067;48.764;9.176;2024-02-15T09:22:34;6.00;6.00;2.00
26185;PMS7003;20067;48.764;9.176;2024-02-15T09:25:01;6.50;6.50;1.00
26185;PMS7003;20067;48.764;9.176;2024-02-15T09:27:27;7.50;5.75;1.00
26185;PMS7003;20067;48.764;9.176;2024-02-15T09:29:53;5.25;5.25;1.25
26185;PMS7003;20067;48.764;9.176;2024-02-15T09:32:20;6.00;5.25;1.00
26185;PMS7003;20067;48.764;9.176;2024-02-15T09:34:47;5.75;5.00;1.00
26185;PMS7003;20067;48.764;9.176;2024-02-15T09:37:13;6.00;5.00;1.00
26185;PMS7003;20067;48.764;9.176;2024-02-15T09:39:39;5.00;5.00;1.00
26185;PMS7003;20067;48.764;9.176;2024-02-15T09:42:04;5.00;5.00;1.00
26185;PMS7003;20067;48.764;9.176;2024-02-15T09:44:30;5.50;5.50;1.00
26185;PMS7003;20067;48.764;9.176;2024-02-15T09:47:03;6.00;6.00;1.00
26185;PMS7003;20067;48.764;9.176;2024-02-15T09:49:34;3.80;3.80;1.00
26185;PMS7003;20067;48.764;9.176;2024-02-15T09:52:02;5.80;5.80;1.00
26185;PMS7003;20067;48.764;9.176;2024-02-15T09:54:29;4.00;4.00;1.00
26185;PMS7003;20067;48.764;9.176;2024-02-15T09:56:55;6.80;6.80;2.00
26185;PMS7003;20067;48.764;9.176;2024-02-15T09:59:25;4.00;4.00;1.60
26185;PMS7003;20067;48.764;9.176;2024-02-15T10:01:51;4.00;4.00;1.75
26185;PMS7003;20067;48.764;9.176;2024-02-15T10:04:21;4.00;4.00;1.00
26185;PMS7003;20067;48.764;9.176;2024-02-15T10:06:47;3.25;3.25;1.00
26185;PMS7003;20067;48.764;9.176;2024-02-15T10:11:57;5.40;4.60;2.00
26185;PMS7003;20067;48.764;9.176;2024-02-15T10:14:26;4.00;4.00;1.00
26185;PMS7003;20067;48.764;9.176;2024-02-15T10:16:54;4.20;4.00;1.20
26185;PMS7003;20067;48.764;9.176;2024-02-15T10:19:20;3.80;3.80;1.00
26185;PMS7003;20067;48.764;9.176;2024-02-15T10:21:53;6.80;4.40;2.00
26185;PMS7003;20067;48.764;9.176;2024-02-15T10:24:23;5.20;4.00;2.00
26185;PMS7003;20067;48.764;9.176;2024-02-15T10:26:49;5.00;3.80;1.00
26185;PMS7003;20067;48.764;9.176;2024-02-15T10:29:16;4.00;4.00;1.20
26185;PMS7003;20067;48.764;9.176;2024-02-15T10:31:55;4.80;3.00;1.00
26185;PMS7003;20067;48.764;9.176;2024-02-15T10:34:23;5.00;4.80;1.00
26185;PMS7003;20067;48.764;9.176;2024-02-15T10:36:52;5.80;3.60;1.00
26185;PMS7003;20067;48.764;9.176;2024-02-15T10:39:37;4.80;3.80;1.00
26185;PMS7003;20067;48.764;9.176;2024-02-15T10:42:03;4.00;4.00;1.50
26185;PMS7003;20067;48.764;9.176;2024-02-15T10:44:31;4.00;4.00;1.40
26185;PMS7003;20067;48.764;9.176;2024-02-15T10:46:59;3.60;3.00;1.00
26185;PMS7003;20067;48.764;9.176;2024-02-15T10:49:25;3.40;3.00;0.80
26185;PMS7003;20067;48.764;9.176;2024-02-15T10:51:56;4.00;4.00;1.00
26185;PMS7003;20067;48.764;9.176;2024-02-15T10:57:03;3.00;3.00;1.00
26185;PMS7003;20067;48.764;9.176;2024-02-15T10:59:31;5.50;5.50;2.00
26185;PMS7003;20067;48.764;9.176;2024-02-15T11:02:15;6.60;4.60;1.00
26185;PMS7003;20067;48.764;9.176;2024-02-15T11:04:45;5.00;5.00;1.00
26185;PMS7003;20067;48.764;9.176;2024-02-15T11:07:19;5.00;5.00;1.00
26185;PMS7003;20067;48.764;9.176;2024-02-15T11:09:46;4.60;3.00;0.60
26185;PMS7003;20067;48.764;9.176;2024-02-15T11:12:12;5.00;3.00;0.00
26185;PMS7003;20067;48.764;9.176;2024-02-15T11:14:39;6.40;5.40;1.40
26185;PMS7003;20067;48.764;9.176;2024-02-15T11:17:09;4.60;4.60;1.00
26185;PMS7003;20067;48.764;9.176;2024-02-15T11:22:15;3.00;3.00;1.00
26185;PMS7003;20067;48.764;9.176;2024-02-15T11:24:45;3.20;3.20;1.00
26185;PMS7003;20067;48.764;9.176;2024-02-15T11:27:13;3.60;3.00;1.00
26185;PMS7003;20067;48.764;9.176;2024-02-15T11:29:57;3.00;3.00;1.00
26185;PMS7003;20067;48.764;9.176;2024-02-15T11:35:11;7.00;6.00;2.00
26185;PMS7003;20067;48.764;9.176;2024-02-15T11:40:13;3.40;3.40;1.00
26185;PMS7003;20067;48.764;9.176;2024-02-15T11:42:39;3.40;3.40;1.00
26185;PMS7003;20067;48.764;9.176;2024-02-15T11:47:38;4.00;4.00;1.60
26185;PMS7003;20067;48.764;9.176;2024-02-15T11:50:07;5.80;5.80;1.40
26185;PMS7003;20067;48.764;9.176;2024-02-15T11:52:50;4.80;4.80;1.40
26185;PMS7003;20067;48.764;9.176;2024-02-15T11:55:22;6.00;6.00;2.00
26185;PMS7003;20067;48.764;9.176;2024-02-15T12:00:30;3.80;3.80;1.00
26185;PMS7003;20067;48.764;9.176;2024-02-15T12:03:16;4.60;4.60;1.60
26185;PMS7003;20067;48.764;9.176;2024-02-15T12:06:01;5.00;5.00;2.00
26185;PMS7003;20067;48.764;9.176;2024-02-15T12:08:46;3.00;3.00;1.00
26185;PMS7003;20067;48.764;9.176;2024-02-15T12:11:32;3.00;3.00;1.00
26185;PMS7003;20067;48.764;9.176;2024-02-15T12:14:16;3.00;3.00;1.00
26185;PMS7003;20067;48.764;9.176;2024-02-15T12:17:05;5.20;5.00;1.00
26185;PMS7003;20067;48.764;9.176;2024-02-15T12:19:50;3.00;3.00;1.00
26185;PMS7003;20067;48.764;9.176;2024-02-15T12:22:20;5.40;5.00;1.00
26185;PMS7003;20067;48.764;9.176;2024-02-15T12:24:53;5.00;4.50;1.00
26185;PMS7003;20067;48.764;9.176;2024-02-15T12:27:23;3.40;3.40;1.00
26185;PMS7003;20067;48.764;9.176;2024-02-15T12:29:58;5.00;5.00;1.60
26185;PMS7003;20067;48.764;9.176;2024-02-15T12:32:25;5.00;5.00;1.00
26185;PMS7003;20067;48.764;9.176;2024-02-15T12:34:51;4.60;3.00;0.00
26185;PMS7003;20067;48.764;9.176;2024-02-15T12:37:20;4.50;4.50;1.75
26185;PMS7003;20067;48.764;9.176;2024-02-15T12:39:46;4.00;4.00;1.00
26185;PMS7003;20067;48.764;9.176;2024-02-15T12:42:18;5.00;5.00;1.00
26185;PMS7003;20067;48.764;9.176;2024-02-15T12:44:45;3.00;3.00;1.00
26185;PMS7003;20067;48.764;9.176;2024-02-15T12:47:21;4.20;4.20;0.60
26185;PMS7003;20067;48.764;9.176;2024-02-15T12:49:50;3.00;3.00;0.00
26185;PMS7003;20067;48.764;9.176;2024-02-15T12:55:14;5.00;5.00;1.00
26185;PMS7003;20067;48.764;9.176;2024-02-15T12:57:41;4.50;4.50;1.00
26185;PMS7003;20067;48.764;9.176;2024-02-15T13:00:11;3.00;3.00;0.60
26185;PMS7003;20067;48.764;9.176;2024-02-15T13:02:42;4.20;4.20;1.00
26185;PMS7003;20067;48.764;9.176;2024-02-15T13:05:09;4.20;4.20;1.00
26185;PMS7003;20067;48.764;9.176;2024-02-15T13:07:35;3.00;3.00;1.00
26185;PMS7003;20067;48.764;9.176;2024-02-15T13:10:02;3.40;3.40;1.00
26185;PMS7003;20067;48.764;9.176;2024-02-15T13:12:31;4.60;4.60;1.00
26185;PMS7003;20067;48.764;9.176;2024-02-15T13:14:59;3.00;3.00;0.60
26185;PMS7003;20067;48.764;9.176;2024-02-15T13:17:29;3.00;3.00;0.20
26185;PMS7003;20067;48.764;9.176;2024-02-15T13:19:54;5.00;4.00;1.00
26185;PMS7003;20067;48.764;9.176;2024-02-15T13:22:28;3.00;3.00;0.80
26185;PMS7003;20067;48.764;9.176;2024-02-15T13:24:54;4.60;4.60;0.60
26185;PMS7003;20067;48.764;9.176;2024-02-15T13:27:20;3.50;3.00;0.25
26185;PMS7003;20067;48.764;9.176;2024-02-15T13:29:48;4.20;3.00;1.00
26185;PMS7003;20067;48.764;9.176;2024-02-15T13:32:15;2.50;2.00;0.00
26185;PMS7003;20067;48.764;9.176;2024-02-15T13:34:42;5.00;3.80;1.00
26185;PMS7003;20067;48.764;9.176;2024-02-15T13:37:10;3.80;3.80;0.00
26185;PMS7003;20067;48.764;9.176;2024-02-15T13:39:38;5.50;3.00;0.75
26185;PMS7003;20067;48.764;9.176;2024-02-15T13:42:08;5.00;4.20;1.00
26185;PMS7003;20067;48.764;9.176;2024-02-15T13:44:33;3.00;3.00;0.75
26185;PMS7003;20067;48.764;9.176;2024-02-15T13:46:59;5.00;5.00;1.00
26185;PMS7003;20067;48.764;9.176;2024-02-15T13:49:25;3.00;3.00;1.00
26185;PMS7003;20067;48.764;9.176;2024-02-15T13:51:51;3.00;3.00;0.25
26185;PMS7003;20067;48.764;9.176;2024-02-15T13:54:17;5.00;5.00;1.25
26185;PMS7003;20067;48.764;9.176;2024-02-15T13:56:43;3.00;3.00;1.00
26185;PMS7003;20067;48.764;9.176;2024-02-15T13:59:09;3.80;3.00;0.60
26185;PMS7003;20067;48.764;9.176;2024-02-15T14:01:34;5.00;5.00;1.00
26185;PMS7003;20067;48.764;9.176;2024-02-15T14:04:08;3.00;3.00;1.00
26185;PMS7003;20067;48.764;9.176;2024-02-15T14:06:34;6.00;5.00;1.00
26185;PMS7003;20067;48.764;9.176;2024-02-15T14:09:02;5.80;4.60;1.00
26185;PMS7003;20067;48.764;9.176;2024-02-15T14:11:28;3.00;3.00;1.00
26185;PMS7003;20067;48.764;9.176;2024-02-15T14:13:53;3.00;3.00;1.00
26185;PMS7003;20067;48.764;9.176;2024-02-15T14:16:23;3.00;3.00;1.00
26185;PMS7003;20067;48.764;9.176;2024-02-15T14:18:52;6.00;5.00;1.00
26185;PMS7003;20067;48.764;9.176;2024-02-15T14:21:19;5.00;5.00;1.00
26185;PMS7003;20067;48.764;9.176;2024-02-15T14:23:45;5.75;5.00;1.25
26185;PMS7003;20067;48.764;9.176;2024-02-15T14:26:11;5.00;5.00;1.00
26185;PMS7003;20067;48.764;9.176;2024-02-15T14:28:36;5.00;5.00;1.00
26185;PMS7003;20067;48.764;9.176;2024-02-15T14:31:06;3.00;3.00;0.50
26185;PMS7003;20067;48.764;9.176;2024-02-15T14:33:50;5.00;5.00;1.00
26185;PMS7003;20067;48.764;9.176;2024-02-15T14:36:16;3.00;3.00;1.00
26185;PMS7003;20067;48.764;9.176;2024-02-15T14:38:42;3.00;3.00;1.00
26185;PMS7003;20067;48.764;9.176;2024-02-15T14:41:09;5.50;5.00;1.00
26185;PMS7003;20067;48.764;9.176;2024-02-15T14:43:36;6.00;4.60;0.60
26185;PMS7003;20067;48.764;9.176;2024-02-15T14:46:02;3.00;3.00;0.60
26185;PMS7003;20067;48.764;9.176;2024-02-15T14:48:30;5.75;5.00;1.50
26185;PMS7003;20067;48.764;9.176;2024-02-15T14:50:56;3.80;3.80;1.00
26185;PMS7003;20067;48.764;9.176;2024-02-15T14:53:22;5.00;5.00;1.00
26185;PMS7003;20067;48.764;9.176;2024-02-15T14:55:49;6.00;5.80;1.00
26185;PMS7003;20067;48.764;9.176;2024-02-15T14:58:16;6.00;6.00;2.00